sensor_id;sensor_type;location;lat;lon;timestamp;temperature;humidity
40932;DHT22;36257;46.052;12.540;2023-12-20T00:02:20;4.30;97.20
40932;DHT22;36257;46.052;12.540;2023-12-20T00:04:45;4.30;97.20
40932;DHT22;36257;46.052;12.540;2023-12-20T00:07:11;4.30;96.90
40932;DHT22;36257;46.052;12.540;2023-12-20T00:09:37;4.30;96.90
40932;DHT22;36257;46.052;12.540;2023-12-20T00:12:02;4.30;96.90
40932;DHT22;36257;46.052;12.540;2023-12-20T00:14:28;4.20;97.10
40932;DHT22;36257;46.052;12.540;2023-12-20T00:16:54;4.20;97.00
40932;DHT22;36257;46.052;12.540;2023-12-20T00:19:19;4.20;97.00
40932;DHT22;36257;46.052;12.540;2023-12-20T00:21:45;4.20;97.20
40932;DHT22;36257;46.052;12.540;2023-12-20T00:24:11;4.20;97.50
40932;DHT22;36257;46.052;12.540;2023-12-20T00:26:36;4.10;97.40
40932;DHT22;36257;46.052;12.540;2023-12-20T00:29:02;4.20;97.20
40932;DHT22;36257;46.052;12.540;2023-12-20T00:31:28;4.20;96.60
40932;DHT22;36257;46.052;12.540;2023-12-20T00:33:53;4.30;96.00
40932;DHT22;36257;46.052;12.540;2023-12-20T00:36:20;4.30;96.00
40932;DHT22;36257;46.052;12.540;2023-12-20T00:38:45;4.40;96.00
40932;DHT22;36257;46.052;12.540;2023-12-20T00:41:11;4.50;95.70
40932;DHT22;36257;46.052;12.540;2023-12-20T00:43:36;4.50;95.60
40932;DHT22;36257;46.052;12.540;2023-12-20T00:46:02;4.50;95.70
40932;DHT22;36257;46.052;12.540;2023-12-20T00:48:28;4.50;95.60
40932;DHT22;36257;46.052;12.540;2023-12-20T00:50:55;4.50;95.30
40932;DHT22;36257;46.052;12.540;2023-12-20T00:53:21;4.50;95.40
40932;DHT22;36257;46.052;12.540;2023-12-20T00:55:47;4.50;95.50
40932;DHT22;36257;46.052;12.540;2023-12-20T00:58:12;4.50;95.60
40932;DHT22;36257;46.052;12.540;2023-12-20T01:00:40;4.40;95.80
40932;DHT22;36257;46.052;12.540;2023-12-20T01:03:07;4.30;95.90
40932;DHT22;36257;46.052;12.540;2023-12-20T01:05:33;4.20;96.60
40932;DHT22;36257;46.052;12.540;2023-12-20T01:07:58;4.20;96.90
40932;DHT22;36257;46.052;12.540;2023-12-20T01:10:24;4.20;96.90
40932;DHT22;36257;46.052;12.540;2023-12-20T01:12:53;4.20;96.90
40932;DHT22;36257;46.052;12.540;2023-12-20T01:15:19;4.20;97.00
40932;DHT22;36257;46.052;12.540;2023-12-20T01:17:44;4.20;97.00
40932;DHT22;36257;46.052;12.540;2023-12-20T01:20:10;4.20;96.80
40932;DHT22;36257;46.052;12.540;2023-12-20T01:22:36;4.30;96.30
40932;DHT22;36257;46.052;12.540;2023-12-20T01:25:02;4.30;96.00
40932;DHT22;36257;46.052;12.540;2023-12-20T01:27:28;4.30;95.70
40932;DHT22;36257;46.052;12.540;2023-12-20T01:29:54;4.30;95.90
40932;DHT22;36257;46.052;12.540;2023-12-20T01:32:19;4.30;96.30
40932;DHT22;36257;46.052;12.540;2023-12-20T01:34:45;4.30;96.60
40932;DHT22;36257;46.052;12.540;2023-12-20T01:37:11;4.20;97.10
40932;DHT22;36257;46.052;12.540;2023-12-20T01:39:36;4.20;97.20
40932;DHT22;36257;46.052;12.540;2023-12-20T01:42:02;4.20;97.10
40932;DHT22;36257;46.052;12.540;2023-12-20T01:44:28;4.20;96.70
40932;DHT22;36257;46.052;12.540;2023-12-20T01:46:57;4.20;96.20
40932;DHT22;36257;46.052;12.540;2023-12-20T01:49:24;4.20;96.20
40932;DHT22;36257;46.052;12.540;2023-12-20T01:51:50;4.30;96.00
40932;DHT22;36257;46.052;12.540;2023-12-20T01:54:16;4.30;96.20
40932;DHT22;36257;46.052;12.540;2023-12-20T01:56:42;4.20;96.30
40932;DHT22;36257;46.052;12.540;2023-12-20T01:59:08;4.20;96.50
40932;DHT22;36257;46.052;12.540;2023-12-20T02:01:35;4.20;96.60
40932;DHT22;36257;46.052;12.540;2023-12-20T02:04:01;4.20;96.60
40932;DHT22;36257;46.052;12.540;2023-12-20T02:06:30;4.20;96.60
40932;DHT22;36257;46.052;12.540;2023-12-20T02:08:58;4.20;96.60
40932;DHT22;36257;46.052;12.540;2023-12-20T02:11:24;4.20;96.50
40932;DHT22;36257;46.052;12.540;2023-12-20T02:13:50;4.20;96.30
40932;DHT22;36257;46.052;12.540;2023-12-20T02:16:16;4.20;96.10
40932;DHT22;36257;46.052;12.540;2023-12-20T02:18:43;4.20;96.10
40932;DHT22;36257;46.052;12.540;2023-12-20T02:21:09;4.20;96.20
40932;DHT22;36257;46.052;12.540;2023-12-20T02:23:35;4.20;95.90
40932;DHT22;36257;46.052;12.540;2023-12-20T02:26:01;4.20;95.70
40932;DHT22;36257;46.052;12.540;2023-12-20T02:28:27;4.20;95.60
40932;DHT22;36257;46.052;12.540;2023-12-20T02:30:53;4.30;95.70
40932;DHT22;36257;46.052;12.540;2023-12-20T02:33:19;4.30;95.70
40932;DHT22;36257;46.052;12.540;2023-12-20T02:35:44;4.30;95.50
40932;DHT22;36257;46.052;12.540;2023-12-20T02:38:10;4.30;95.40
40932;DHT22;36257;46.052;12.540;2023-12-20T02:40:36;4.40;95.30
40932;DHT22;36257;46.052;12.540;2023-12-20T02:43:02;4.40;95.30
40932;DHT22;36257;46.052;12.540;2023-12-20T02:45:27;4.50;95.20
40932;DHT22;36257;46.052;12.540;2023-12-20T02:47:53;4.40;95.30
40932;DHT22;36257;46.052;12.540;2023-12-20T02:50:19;4.50;95.20
40932;DHT22;36257;46.052;12.540;2023-12-20T02:52:45;4.50;95.40
40932;DHT22;36257;46.052;12.540;2023-12-20T02:55:11;4.50;95.90
40932;DHT22;36257;46.052;12.540;2023-12-20T02:57:37;4.50;95.90
40932;DHT22;36257;46.052;12.540;2023-12-20T03:00:08;4.40;96.20
40932;DHT22;36257;46.052;12.540;2023-12-20T03:02:34;4.40;96.50
40932;DHT22;36257;46.052;12.540;2023-12-20T03:05:00;4.40;96.60
40932;DHT22;36257;46.052;12.540;2023-12-20T03:07:25;4.40;96.80
40932;DHT22;36257;46.052;12.540;2023-12-20T03:09:51;4.40;96.80
40932;DHT22;36257;46.052;12.540;2023-12-20T03:12:17;4.50;96.90
40932;DHT22;36257;46.052;12.540;2023-12-20T03:14:43;4.50;96.90
40932;DHT22;36257;46.052;12.540;2023-12-20T03:17:09;4.50;97.20
40932;DHT22;36257;46.052;12.540;2023-12-20T03:19:35;4.50;97.30
40932;DHT22;36257;46.052;12.540;2023-12-20T03:22:01;4.50;97.30
40932;DHT22;36257;46.052;12.540;2023-12-20T03:24:27;4.50;97.40
40932;DHT22;36257;46.052;12.540;2023-12-20T03:26:52;4.50;97.60
40932;DHT22;36257;46.052;12.540;2023-12-20T03:29:18;4.50;97.60
40932;DHT22;36257;46.052;12.540;2023-12-20T03:31:44;4.40;97.80
40932;DHT22;36257;46.052;12.540;2023-12-20T03:34:09;4.40;97.90
40932;DHT22;36257;46.052;12.540;2023-12-20T03:36:36;4.40;98.00
40932;DHT22;36257;46.052;12.540;2023-12-20T03:39:01;4.40;97.80
40932;DHT22;36257;46.052;12.540;2023-12-20T03:41:28;4.30;98.10
40932;DHT22;36257;46.052;12.540;2023-12-20T03:44:16;4.20;98.20
40932;DHT22;36257;46.052;12.540;2023-12-20T03:47:03;4.10;98.60
40932;DHT22;36257;46.052;12.540;2023-12-20T03:49:29;4.00;98.80
40932;DHT22;36257;46.052;12.540;2023-12-20T03:51:55;3.90;99.20
40932;DHT22;36257;46.052;12.540;2023-12-20T03:54:20;3.80;99.90
40932;DHT22;36257;46.052;12.540;2023-12-20T03:56:46;3.80;99.90
40932;DHT22;36257;46.052;12.540;2023-12-20T03:59:11;3.90;99.90
40932;DHT22;36257;46.052;12.540;2023-12-20T04:01:37;3.80;99.70
40932;DHT22;36257;46.052;12.540;2023-12-20T04:04:03;3.80;99.70
40932;DHT22;36257;46.052;12.540;2023-12-20T04:06:28;3.80;99.80
40932;DHT22;36257;46.052;12.540;2023-12-20T04:08:54;3.80;99.80
40932;DHT22;36257;46.052;12.540;2023-12-20T04:11:20;3.70;99.90
40932;DHT22;36257;46.052;12.540;2023-12-20T04:13:45;3.70;99.90
40932;DHT22;36257;46.052;12.540;2023-12-20T04:16:11;3.70;99.90
40932;DHT22;36257;46.052;12.540;2023-12-20T04:18:37;3.80;99.90
40932;DHT22;36257;46.052;12.540;2023-12-20T04:21:02;3.80;99.60
40932;DHT22;36257;46.052;12.540;2023-12-20T04:23:28;3.80;99.70
40932;DHT22;36257;46.052;12.540;2023-12-20T04:25:54;3.80;99.70
40932;DHT22;36257;46.052;12.540;2023-12-20T04:28:20;3.90;99.50
40932;DHT22;36257;46.052;12.540;2023-12-20T04:30:45;3.90;99.60
40932;DHT22;36257;46.052;12.540;2023-12-20T04:33:11;3.90;99.90
40932;DHT22;36257;46.052;12.540;2023-12-20T04:35:37;3.90;99.90
40932;DHT22;36257;46.052;12.540;2023-12-20T04:38:02;3.90;99.60
40932;DHT22;36257;46.052;12.540;2023-12-20T04:40:28;4.10;99.10
40932;DHT22;36257;46.052;12.540;2023-12-20T04:42:54;4.20;98.60
40932;DHT22;36257;46.052;12.540;2023-12-20T04:45:19;4.30;98.50
40932;DHT22;36257;46.052;12.540;2023-12-20T04:47:45;4.40;98.40
40932;DHT22;36257;46.052;12.540;2023-12-20T04:50:12;4.40;98.20
40932;DHT22;36257;46.052;12.540;2023-12-20T04:52:38;4.40;98.20
40932;DHT22;36257;46.052;12.540;2023-12-20T04:55:04;4.40;98.20
40932;DHT22;36257;46.052;12.540;2023-12-20T04:57:30;4.40;98.60
40932;DHT22;36257;46.052;12.540;2023-12-20T04:59:56;4.40;98.90
40932;DHT22;36257;46.052;12.540;2023-12-20T05:02:21;4.40;98.70
40932;DHT22;36257;46.052;12.540;2023-12-20T05:04:47;4.50;98.60
40932;DHT22;36257;46.052;12.540;2023-12-20T05:07:13;4.50;98.10
40932;DHT22;36257;46.052;12.540;2023-12-20T05:09:38;4.60;97.80
40932;DHT22;36257;46.052;12.540;2023-12-20T05:12:04;4.60;97.70
40932;DHT22;36257;46.052;12.540;2023-12-20T05:14:30;4.60;97.70
40932;DHT22;36257;46.052;12.540;2023-12-20T05:16:56;4.80;97.60
40932;DHT22;36257;46.052;12.540;2023-12-20T05:19:22;4.70;97.90
40932;DHT22;36257;46.052;12.540;2023-12-20T05:21:48;4.80;98.00
40932;DHT22;36257;46.052;12.540;2023-12-20T05:24:13;4.90;97.70
40932;DHT22;36257;46.052;12.540;2023-12-20T05:26:40;4.90;97.40
40932;DHT22;36257;46.052;12.540;2023-12-20T05:29:05;5.00;97.00
40932;DHT22;36257;46.052;12.540;2023-12-20T05:31:32;5.00;97.00
40932;DHT22;36257;46.052;12.540;2023-12-20T05:33:58;4.90;96.80
40932;DHT22;36257;46.052;12.540;2023-12-20T05:36:24;4.90;96.90
40932;DHT22;36257;46.052;12.540;2023-12-20T05:38:50;4.90;96.80
40932;DHT22;36257;46.052;12.540;2023-12-20T05:41:16;4.90;96.90
40932;DHT22;36257;46.052;12.540;2023-12-20T05:43:41;4.90;97.00
40932;DHT22;36257;46.052;12.540;2023-12-20T05:46:07;4.90;96.90
40932;DHT22;36257;46.052;12.540;2023-12-20T05:48:35;4.90;96.90
40932;DHT22;36257;46.052;12.540;2023-12-20T05:51:00;4.90;97.00
40932;DHT22;36257;46.052;12.540;2023-12-20T05:53:26;4.90;97.50
40932;DHT22;36257;46.052;12.540;2023-12-20T05:55:51;4.80;97.70
40932;DHT22;36257;46.052;12.540;2023-12-20T05:58:17;4.80;97.90
40932;DHT22;36257;46.052;12.540;2023-12-20T06:00:43;4.80;98.00
40932;DHT22;36257;46.052;12.540;2023-12-20T06:03:08;4.80;98.20
40932;DHT22;36257;46.052;12.540;2023-12-20T06:05:34;4.80;98.10
40932;DHT22;36257;46.052;12.540;2023-12-20T06:07:59;4.90;97.80
40932;DHT22;36257;46.052;12.540;2023-12-20T06:10:28;4.90;97.70
40932;DHT22;36257;46.052;12.540;2023-12-20T06:12:54;5.00;97.60
40932;DHT22;36257;46.052;12.540;2023-12-20T06:15:20;4.90;98.00
40932;DHT22;36257;46.052;12.540;2023-12-20T06:17:46;4.90;98.20
40932;DHT22;36257;46.052;12.540;2023-12-20T06:20:12;5.00;97.60
40932;DHT22;36257;46.052;12.540;2023-12-20T06:22:38;5.00;97.60
40932;DHT22;36257;46.052;12.540;2023-12-20T06:25:05;5.00;97.70
40932;DHT22;36257;46.052;12.540;2023-12-20T06:27:30;5.10;97.70
40932;DHT22;36257;46.052;12.540;2023-12-20T06:29:57;5.10;97.80
40932;DHT22;36257;46.052;12.540;2023-12-20T06:32:23;5.10;97.80
40932;DHT22;36257;46.052;12.540;2023-12-20T06:34:49;5.20;97.40
40932;DHT22;36257;46.052;12.540;2023-12-20T06:37:15;5.20;97.40
40932;DHT22;36257;46.052;12.540;2023-12-20T06:39:41;5.20;97.10
40932;DHT22;36257;46.052;12.540;2023-12-20T06:42:06;5.20;96.70
40932;DHT22;36257;46.052;12.540;2023-12-20T06:44:32;5.30;96.70
40932;DHT22;36257;46.052;12.540;2023-12-20T06:46:58;5.20;96.70
40932;DHT22;36257;46.052;12.540;2023-12-20T06:49:24;5.30;96.60
40932;DHT22;36257;46.052;12.540;2023-12-20T06:51:49;5.30;96.80
40932;DHT22;36257;46.052;12.540;2023-12-20T06:54:15;5.30;97.00
40932;DHT22;36257;46.052;12.540;2023-12-20T06:56:41;5.40;97.00
40932;DHT22;36257;46.052;12.540;2023-12-20T06:59:06;5.50;97.10
40932;DHT22;36257;46.052;12.540;2023-12-20T07:01:32;5.50;97.10
40932;DHT22;36257;46.052;12.540;2023-12-20T07:03:57;5.60;97.10
40932;DHT22;36257;46.052;12.540;2023-12-20T07:06:23;5.60;96.80
40932;DHT22;36257;46.052;12.540;2023-12-20T07:08:51;5.70;96.70
40932;DHT22;36257;46.052;12.540;2023-12-20T07:11:17;5.70;96.20
40932;DHT22;36257;46.052;12.540;2023-12-20T07:13:43;5.90;95.90
40932;DHT22;36257;46.052;12.540;2023-12-20T07:16:09;5.90;95.70
40932;DHT22;36257;46.052;12.540;2023-12-20T07:18:35;6.00;95.50
40932;DHT22;36257;46.052;12.540;2023-12-20T07:21:00;6.00;95.50
40932;DHT22;36257;46.052;12.540;2023-12-20T07:23:26;6.10;95.30
40932;DHT22;36257;46.052;12.540;2023-12-20T07:25:52;6.10;95.30
40932;DHT22;36257;46.052;12.540;2023-12-20T07:28:17;6.10;95.60
40932;DHT22;36257;46.052;12.540;2023-12-20T07:30:43;6.10;95.30
40932;DHT22;36257;46.052;12.540;2023-12-20T07:33:09;6.20;95.00
40932;DHT22;36257;46.052;12.540;2023-12-20T07:35:35;6.20;95.10
40932;DHT22;36257;46.052;12.540;2023-12-20T07:38:00;6.20;95.00
40932;DHT22;36257;46.052;12.540;2023-12-20T07:40:27;6.20;94.90
40932;DHT22;36257;46.052;12.540;2023-12-20T07:42:53;6.20;95.50
40932;DHT22;36257;46.052;12.540;2023-12-20T07:45:18;6.20;96.00
40932;DHT22;36257;46.052;12.540;2023-12-20T07:47:44;6.20;96.20
40932;DHT22;36257;46.052;12.540;2023-12-20T07:50:10;6.20;95.80
40932;DHT22;36257;46.052;12.540;2023-12-20T07:52:35;6.30;95.40
40932;DHT22;36257;46.052;12.540;2023-12-20T07:55:01;6.40;95.70
40932;DHT22;36257;46.052;12.540;2023-12-20T07:57:30;6.40;95.60
40932;DHT22;36257;46.052;12.540;2023-12-20T07:59:56;6.40;95.90
40932;DHT22;36257;46.052;12.540;2023-12-20T08:02:21;6.50;95.80
40932;DHT22;36257;46.052;12.540;2023-12-20T08:04:47;6.50;95.80
40932;DHT22;36257;46.052;12.540;2023-12-20T08:07:13;6.50;95.90
40932;DHT22;36257;46.052;12.540;2023-12-20T08:09:38;6.40;96.40
40932;DHT22;36257;46.052;12.540;2023-12-20T08:12:04;6.60;96.50
40932;DHT22;36257;46.052;12.540;2023-12-20T08:14:30;6.60;96.90
40932;DHT22;36257;46.052;12.540;2023-12-20T08:16:56;6.60;96.80
40932;DHT22;36257;46.052;12.540;2023-12-20T08:19:22;6.70;96.80
40932;DHT22;36257;46.052;12.540;2023-12-20T08:21:48;6.70;96.90
40932;DHT22;36257;46.052;12.540;2023-12-20T08:24:13;6.70;97.20
40932;DHT22;36257;46.052;12.540;2023-12-20T08:26:39;6.70;97.20
40932;DHT22;36257;46.052;12.540;2023-12-20T08:29:04;6.70;97.40
40932;DHT22;36257;46.052;12.540;2023-12-20T08:31:30;6.70;96.90
40932;DHT22;36257;46.052;12.540;2023-12-20T08:33:56;6.60;97.20
40932;DHT22;36257;46.052;12.540;2023-12-20T08:36:22;6.60;97.70
40932;DHT22;36257;46.052;12.540;2023-12-20T08:38:49;6.60;97.60
40932;DHT22;36257;46.052;12.540;2023-12-20T08:41:16;6.70;97.80
40932;DHT22;36257;46.052;12.540;2023-12-20T08:43:42;6.80;97.70
40932;DHT22;36257;46.052;12.540;2023-12-20T08:46:08;6.90;97.60
40932;DHT22;36257;46.052;12.540;2023-12-20T08:48:37;6.90;97.70
40932;DHT22;36257;46.052;12.540;2023-12-20T08:51:04;6.80;97.10
40932;DHT22;36257;46.052;12.540;2023-12-20T08:53:29;6.80;97.40
40932;DHT22;36257;46.052;12.540;2023-12-20T08:55:55;6.80;97.30
40932;DHT22;36257;46.052;12.540;2023-12-20T08:58:21;6.80;97.70
40932;DHT22;36257;46.052;12.540;2023-12-20T09:00:47;6.90;98.50
40932;DHT22;36257;46.052;12.540;2023-12-20T09:03:12;6.90;97.90
40932;DHT22;36257;46.052;12.540;2023-12-20T09:05:38;6.90;98.10
40932;DHT22;36257;46.052;12.540;2023-12-20T09:08:04;6.90;98.10
40932;DHT22;36257;46.052;12.540;2023-12-20T09:10:29;7.00;97.80
40932;DHT22;36257;46.052;12.540;2023-12-20T09:12:55;7.00;97.60
40932;DHT22;36257;46.052;12.540;2023-12-20T09:15:26;7.10;98.20
40932;DHT22;36257;46.052;12.540;2023-12-20T09:17:52;7.10;98.90
40932;DHT22;36257;46.052;12.540;2023-12-20T09:20:18;7.20;98.70
40932;DHT22;36257;46.052;12.540;2023-12-20T09:22:43;7.30;98.60
40932;DHT22;36257;46.052;12.540;2023-12-20T09:25:10;7.30;97.40
40932;DHT22;36257;46.052;12.540;2023-12-20T09:27:36;7.20;97.30
40932;DHT22;36257;46.052;12.540;2023-12-20T09:30:02;7.10;97.70
40932;DHT22;36257;46.052;12.540;2023-12-20T09:32:29;7.10;98.00
40932;DHT22;36257;46.052;12.540;2023-12-20T09:34:55;7.20;97.50
40932;DHT22;36257;46.052;12.540;2023-12-20T09:37:20;7.20;97.80
40932;DHT22;36257;46.052;12.540;2023-12-20T09:39:46;7.30;97.50
40932;DHT22;36257;46.052;12.540;2023-12-20T09:42:12;7.30;95.70
40932;DHT22;36257;46.052;12.540;2023-12-20T09:44:40;7.30;93.50
40932;DHT22;36257;46.052;12.540;2023-12-20T09:47:08;7.50;93.30
40932;DHT22;36257;46.052;12.540;2023-12-20T09:49:34;7.60;93.20
40932;DHT22;36257;46.052;12.540;2023-12-20T09:52:00;7.60;94.50
40932;DHT22;36257;46.052;12.540;2023-12-20T09:54:28;7.70;93.80
40932;DHT22;36257;46.052;12.540;2023-12-20T09:56:54;7.70;92.70
40932;DHT22;36257;46.052;12.540;2023-12-20T09:59:19;7.80;92.20
40932;DHT22;36257;46.052;12.540;2023-12-20T10:01:45;8.00;90.50
40932;DHT22;36257;46.052;12.540;2023-12-20T10:04:12;8.10;88.40
40932;DHT22;36257;46.052;12.540;2023-12-20T10:06:42;8.20;87.90
40932;DHT22;36257;46.052;12.540;2023-12-20T10:09:09;8.30;87.20
40932;DHT22;36257;46.052;12.540;2023-12-20T10:11:37;8.50;86.70
40932;DHT22;36257;46.052;12.540;2023-12-20T10:14:03;8.50;87.40
40932;DHT22;36257;46.052;12.540;2023-12-20T10:16:30;8.60;86.40
40932;DHT22;36257;46.052;12.540;2023-12-20T10:18:56;8.70;86.10
40932;DHT22;36257;46.052;12.540;2023-12-20T10:21:22;8.70;85.20
40932;DHT22;36257;46.052;12.540;2023-12-20T10:23:48;8.80;85.30
40932;DHT22;36257;46.052;12.540;2023-12-20T10:26:21;8.90;85.20
40932;DHT22;36257;46.052;12.540;2023-12-20T10:28:50;8.90;85.10
40932;DHT22;36257;46.052;12.540;2023-12-20T10:31:33;9.00;84.70
40932;DHT22;36257;46.052;12.540;2023-12-20T10:34:00;9.00;84.30
40932;DHT22;36257;46.052;12.540;2023-12-20T10:36:28;9.00;84.40
40932;DHT22;36257;46.052;12.540;2023-12-20T10:38:54;9.10;84.00
40932;DHT22;36257;46.052;12.540;2023-12-20T10:41:31;9.20;83.00
40932;DHT22;36257;46.052;12.540;2023-12-20T10:44:00;9.30;82.80
40932;DHT22;36257;46.052;12.540;2023-12-20T10:46:29;9.30;83.60
40932;DHT22;36257;46.052;12.540;2023-12-20T10:48:56;9.40;83.10
40932;DHT22;36257;46.052;12.540;2023-12-20T10:51:23;9.60;83.20
40932;DHT22;36257;46.052;12.540;2023-12-20T10:53:52;9.70;83.20
40932;DHT22;36257;46.052;12.540;2023-12-20T10:56:19;9.80;82.30
40932;DHT22;36257;46.052;12.540;2023-12-20T10:58:46;9.90;82.40
40932;DHT22;36257;46.052;12.540;2023-12-20T11:01:13;10.00;82.20
40932;DHT22;36257;46.052;12.540;2023-12-20T11:03:52;10.10;82.50
40932;DHT22;36257;46.052;12.540;2023-12-20T11:06:36;10.30;81.90
40932;DHT22;36257;46.052;12.540;2023-12-20T11:14:47;11.10;79.50
40932;DHT22;36257;46.052;12.540;2023-12-20T11:17:13;11.30;79.00
40932;DHT22;36257;46.052;12.540;2023-12-20T11:20:06;11.40;79.10
40932;DHT22;36257;46.052;12.540;2023-12-20T11:22:33;11.50;78.50
40932;DHT22;36257;46.052;12.540;2023-12-20T11:27:34;11.20;79.20
40932;DHT22;36257;46.052;12.540;2023-12-20T11:30:03;11.10;80.30
40932;DHT22;36257;46.052;12.540;2023-12-20T11:32:34;11.00;81.20
40932;DHT22;36257;46.052;12.540;2023-12-20T11:35:17;11.00;81.90
40932;DHT22;36257;46.052;12.540;2023-12-20T11:37:44;10.90;82.70
40932;DHT22;36257;46.052;12.540;2023-12-20T11:40:14;10.90;83.70
40932;DHT22;36257;46.052;12.540;2023-12-20T11:42:42;10.80;84.60
40932;DHT22;36257;46.052;12.540;2023-12-20T11:45:13;10.70;84.60
40932;DHT22;36257;46.052;12.540;2023-12-20T11:47:45;10.70;85.60
40932;DHT22;36257;46.052;12.540;2023-12-20T11:50:11;10.60;86.70
40932;DHT22;36257;46.052;12.540;2023-12-20T11:52:37;10.60;87.60
40932;DHT22;36257;46.052;12.540;2023-12-20T11:55:02;10.60;88.00
40932;DHT22;36257;46.052;12.540;2023-12-20T11:57:29;10.50;88.00
40932;DHT22;36257;46.052;12.540;2023-12-20T11:59:55;10.50;87.70
40932;DHT22;36257;46.052;12.540;2023-12-20T12:02:21;10.40;87.10
40932;DHT22;36257;46.052;12.540;2023-12-20T12:04:48;10.50;86.60
40932;DHT22;36257;46.052;12.540;2023-12-20T12:07:14;10.40;86.20
40932;DHT22;36257;46.052;12.540;2023-12-20T12:09:40;10.40;86.20
40932;DHT22;36257;46.052;12.540;2023-12-20T12:12:06;10.40;86.10
40932;DHT22;36257;46.052;12.540;2023-12-20T12:14:32;10.30;85.70
40932;DHT22;36257;46.052;12.540;2023-12-20T12:16:57;10.30;85.80
40932;DHT22;36257;46.052;12.540;2023-12-20T12:19:24;10.30;85.80
40932;DHT22;36257;46.052;12.540;2023-12-20T12:22:11;10.30;85.80
40932;DHT22;36257;46.052;12.540;2023-12-20T12:24:41;10.40;85.70
40932;DHT22;36257;46.052;12.540;2023-12-20T12:27:08;10.30;85.90
40932;DHT22;36257;46.052;12.540;2023-12-20T12:29:37;10.30;85.60
40932;DHT22;36257;46.052;12.540;2023-12-20T12:32:07;10.30;85.80
40932;DHT22;36257;46.052;12.540;2023-12-20T12:34:34;10.30;85.80
40932;DHT22;36257;46.052;12.540;2023-12-20T12:37:00;10.30;85.70
40932;DHT22;36257;46.052;12.540;2023-12-20T12:39:25;10.20;86.50
40932;DHT22;36257;46.052;12.540;2023-12-20T12:41:52;10.20;86.60
40932;DHT22;36257;46.052;12.540;2023-12-20T12:44:18;10.20;86.90
40932;DHT22;36257;46.052;12.540;2023-12-20T12:46:46;10.20;87.30
40932;DHT22;36257;46.052;12.540;2023-12-20T12:49:13;10.20;87.80
40932;DHT22;36257;46.052;12.540;2023-12-20T12:51:38;10.20;87.70
40932;DHT22;36257;46.052;12.540;2023-12-20T12:54:04;10.20;87.90
40932;DHT22;36257;46.052;12.540;2023-12-20T12:56:30;10.30;88.20
40932;DHT22;36257;46.052;12.540;2023-12-20T12:58:56;10.30;88.50
40932;DHT22;36257;46.052;12.540;2023-12-20T13:01:22;10.30;88.90
40932;DHT22;36257;46.052;12.540;2023-12-20T13:03:47;10.30;89.50
40932;DHT22;36257;46.052;12.540;2023-12-20T13:06:13;10.40;88.90
40932;DHT22;36257;46.052;12.540;2023-12-20T13:08:42;10.50;89.40
40932;DHT22;36257;46.052;12.540;2023-12-20T13:11:10;10.50;89.50
40932;DHT22;36257;46.052;12.540;2023-12-20T13:13:35;10.60;90.10
40932;DHT22;36257;46.052;12.540;2023-12-20T13:16:01;10.60;90.60
40932;DHT22;36257;46.052;12.540;2023-12-20T13:18:26;10.70;90.70
40932;DHT22;36257;46.052;12.540;2023-12-20T13:20:52;10.70;90.70
40932;DHT22;36257;46.052;12.540;2023-12-20T13:23:18;10.70;90.80
40932;DHT22;36257;46.052;12.540;2023-12-20T13:25:44;10.80;90.50
40932;DHT22;36257;46.052;12.540;2023-12-20T13:28:13;10.80;90.30
40932;DHT22;36257;46.052;12.540;2023-12-20T13:30:39;10.90;90.40
40932;DHT22;36257;46.052;12.540;2023-12-20T13:33:05;10.90;90.20
40932;DHT22;36257;46.052;12.540;2023-12-20T13:35:32;11.00;90.40
40932;DHT22;36257;46.052;12.540;2023-12-20T13:37:58;11.00;90.70
40932;DHT22;36257;46.052;12.540;2023-12-20T13:40:24;11.00;91.10
40932;DHT22;36257;46.052;12.540;2023-12-20T13:42:50;11.10;91.20
40932;DHT22;36257;46.052;12.540;2023-12-20T13:45:16;11.20;91.60
40932;DHT22;36257;46.052;12.540;2023-12-20T13:47:41;11.20;92.50
40932;DHT22;36257;46.052;12.540;2023-12-20T13:50:07;11.10;92.60
40932;DHT22;36257;46.052;12.540;2023-12-20T13:52:33;11.10;93.30
40932;DHT22;36257;46.052;12.540;2023-12-20T13:54:58;11.10;93.50
40932;DHT22;36257;46.052;12.540;2023-12-20T13:57:24;11.10;93.50
40932;DHT22;36257;46.052;12.540;2023-12-20T13:59:50;11.00;93.90
40932;DHT22;36257;46.052;12.540;2023-12-20T14:02:15;11.00;94.00
40932;DHT22;36257;46.052;12.540;2023-12-20T14:04:42;11.00;94.10
40932;DHT22;36257;46.052;12.540;2023-12-20T14:07:08;11.00;94.20
40932;DHT22;36257;46.052;12.540;2023-12-20T14:09:35;11.20;94.20
40932;DHT22;36257;46.052;12.540;2023-12-20T14:12:00;11.30;94.10
40932;DHT22;36257;46.052;12.540;2023-12-20T14:14:26;11.50;93.60
40932;DHT22;36257;46.052;12.540;2023-12-20T14:16:52;11.60;92.30
40932;DHT22;36257;46.052;12.540;2023-12-20T14:19:17;11.80;91.40
40932;DHT22;36257;46.052;12.540;2023-12-20T14:21:43;11.90;90.50
40932;DHT22;36257;46.052;12.540;2023-12-20T14:24:12;12.00;89.90
40932;DHT22;36257;46.052;12.540;2023-12-20T14:26:42;11.90;90.00
40932;DHT22;36257;46.052;12.540;2023-12-20T14:29:08;11.90;89.60
40932;DHT22;36257;46.052;12.540;2023-12-20T14:31:34;11.90;89.20
40932;DHT22;36257;46.052;12.540;2023-12-20T14:34:00;12.00;89.30
40932;DHT22;36257;46.052;12.540;2023-12-20T14:36:29;12.00;89.40
40932;DHT22;36257;46.052;12.540;2023-12-20T14:38:56;12.00;89.30
40932;DHT22;36257;46.052;12.540;2023-12-20T14:41:22;12.00;89.30
40932;DHT22;36257;46.052;12.540;2023-12-20T14:43:50;11.70;89.30
40932;DHT22;36257;46.052;12.540;2023-12-20T14:46:17;11.40;89.50
40932;DHT22;36257;46.052;12.540;2023-12-20T14:48:43;11.10;89.70
40932;DHT22;36257;46.052;12.540;2023-12-20T14:51:08;10.90;89.50
40932;DHT22;36257;46.052;12.540;2023-12-20T14:53:34;10.70;89.70
40932;DHT22;36257;46.052;12.540;2023-12-20T14:56:06;10.40;90.30
40932;DHT22;36257;46.052;12.540;2023-12-20T14:58:31;10.20;90.30
40932;DHT22;36257;46.052;12.540;2023-12-20T15:00:57;9.90;90.50
40932;DHT22;36257;46.052;12.540;2023-12-20T15:03:23;9.70;90.60
40932;DHT22;36257;46.052;12.540;2023-12-20T15:05:49;9.50;90.80
40932;DHT22;36257;46.052;12.540;2023-12-20T15:08:15;9.30;90.10
40932;DHT22;36257;46.052;12.540;2023-12-20T15:10:41;9.30;90.50
40932;DHT22;36257;46.052;12.540;2023-12-20T15:13:06;9.10;90.70
40932;DHT22;36257;46.052;12.540;2023-12-20T15:15:32;9.00;90.70
40932;DHT22;36257;46.052;12.540;2023-12-20T15:17:59;8.90;90.80
40932;DHT22;36257;46.052;12.540;2023-12-20T15:20:25;8.80;90.90
40932;DHT22;36257;46.052;12.540;2023-12-20T15:22:51;8.70;91.60
40932;DHT22;36257;46.052;12.540;2023-12-20T15:25:17;8.70;92.10
40932;DHT22;36257;46.052;12.540;2023-12-20T15:27:47;8.50;92.40
40932;DHT22;36257;46.052;12.540;2023-12-20T15:30:17;8.30;92.90
40932;DHT22;36257;46.052;12.540;2023-12-20T15:32:43;8.30;93.00